createdAt,value
2022-11-13T00:02:13.538Z,9.10
2022-11-13T00:05:00.370Z,8.73
2022-11-13T00:07:47.690Z,9.30
2022-11-13T00:10:34.509Z,10.63
2022-11-13T00:13:23.933Z,10.57
2022-11-13T00:16:16.107Z,9.60
2022-11-13T00:19:02.695Z,11.23
2022-11-13T00:21:49.565Z,9.87
2022-11-13T00:24:36.519Z,9.50
2022-11-13T00:27:23.504Z,9.23
2022-11-13T00:30:16.350Z,8.87
2022-11-13T00:33:07.784Z,9.53
2022-11-13T00:35:55.204Z,10.30
2022-11-13T00:38:42.187Z,8.77
2022-11-13T00:41:28.868Z,9.83
2022-11-13T00:44:15.827Z,10.47
2022-11-13T00:47:03.055Z,9.03
2022-11-13T00:49:51.409Z,8.67
2022-11-13T00:52:38.319Z,9.13
2022-11-13T00:55:25.010Z,7.57
2022-11-13T00:58:11.889Z,7.80
2022-11-13T01:01:05.924Z,7.77
2022-11-13T01:03:52.577Z,7.50
2022-11-13T01:06:40.867Z,7.37
2022-11-13T01:09:27.746Z,7.37
2022-11-13T01:12:14.865Z,8.60
2022-11-13T01:15:01.964Z,9.50
2022-11-13T01:17:48.756Z,10.60
2022-11-13T01:20:35.976Z,9.80
2022-11-13T01:23:23.847Z,9.60
2022-11-13T01:26:12.462Z,11.53
2022-11-13T01:29:01.495Z,10.70
2022-11-13T01:31:48.430Z,9.93
2022-11-13T01:34:35.420Z,9.60
2022-11-13T01:37:22.503Z,9.37
2022-11-13T01:40:13.299Z,8.93
2022-11-13T01:43:00.325Z,8.70
2022-11-13T01:46:07.998Z,10.23
2022-11-13T01:49:03.685Z,10.70
2022-11-13T01:51:54.517Z,9.53
2022-11-13T01:54:48.009Z,9.30
2022-11-13T01:57:36.595Z,8.07
2022-11-13T02:00:23.762Z,8.60
2022-11-13T02:03:11.595Z,7.33
2022-11-13T02:05:58.833Z,8.23
2022-11-13T02:08:46.419Z,7.97
2022-11-13T02:11:33.278Z,8.33
2022-11-13T02:14:24.574Z,7.03
2022-11-13T02:17:17.472Z,8.10
2022-11-13T02:20:06.584Z,8.40
2022-11-13T02:23:03.605Z,9.47
2022-11-13T02:25:54.240Z,8.00
2022-11-13T02:28:40.883Z,7.73
2022-11-13T02:31:27.709Z,7.87
2022-11-13T02:34:15.109Z,7.57
2022-11-13T02:37:02.281Z,6.70
2022-11-13T02:39:48.994Z,6.90
2022-11-13T02:42:37.181Z,6.60
2022-11-13T02:45:25.088Z,7.67
2022-11-13T02:48:11.730Z,7.67
2022-11-13T02:50:59.868Z,6.10
2022-11-13T02:53:46.619Z,5.87
2022-11-13T02:56:33.674Z,6.00
2022-11-13T02:59:22.250Z,5.90
2022-11-13T03:02:09.757Z,6.00
2022-11-13T03:05:13.705Z,5.80
2022-11-13T03:08:00.778Z,6.03
2022-11-13T03:10:47.837Z,6.17
2022-11-13T03:13:35.014Z,5.83
2022-11-13T03:16:23.460Z,5.97
2022-11-13T03:19:10.701Z,5.77
2022-11-13T03:21:57.430Z,5.80
2022-11-13T03:24:44.574Z,5.40
2022-11-13T03:27:32.980Z,4.37
2022-11-13T03:30:20.477Z,5.20
2022-11-13T03:33:08.425Z,5.07
2022-11-13T03:35:55.372Z,6.17
2022-11-13T03:38:42.424Z,5.20
2022-11-13T03:41:29.662Z,6.27
2022-11-13T03:44:16.463Z,5.27
2022-11-13T03:47:03.323Z,5.90
2022-11-13T03:49:52.264Z,5.57
2022-11-13T03:52:39.295Z,6.07
2022-11-13T03:55:26.407Z,5.73
2022-11-13T03:58:13.344Z,4.60
2022-11-13T04:01:00.268Z,5.87
2022-11-13T04:03:47.447Z,5.87
2022-11-13T04:06:35.957Z,6.57
2022-11-13T04:09:22.844Z,5.77
2022-11-13T04:12:09.630Z,5.80
2022-11-13T04:14:56.627Z,5.30
2022-11-13T04:17:43.689Z,5.63
2022-11-13T04:20:31.255Z,6.53
2022-11-13T04:23:19.858Z,5.63
2022-11-13T04:26:07.154Z,5.80
2022-11-13T04:28:54.145Z,6.70
2022-11-13T04:31:41.061Z,7.03
2022-11-13T04:34:28.030Z,6.47
2022-11-13T04:37:14.881Z,7.17
2022-11-13T04:40:03.350Z,6.90
2022-11-13T04:42:49.199Z,7.23
2022-11-13T04:45:36.898Z,7.90
2022-11-13T04:48:23.847Z,7.80
2022-11-13T04:51:10.774Z,7.80
2022-11-13T04:53:57.774Z,7.47
2022-11-13T04:56:46.163Z,7.33
2022-11-13T04:59:32.882Z,6.67
2022-11-13T05:02:19.853Z,7.03
2022-11-13T05:05:07.091Z,8.10
2022-11-13T05:07:53.890Z,8.50
2022-11-13T05:10:40.802Z,8.87
2022-11-13T05:13:32.198Z,7.80
2022-11-13T05:16:19.197Z,8.57
2022-11-13T05:19:07.378Z,8.70
2022-11-13T05:21:55.283Z,8.87
2022-11-13T05:24:42.304Z,7.90
2022-11-13T05:27:29.127Z,8.57
2022-11-13T05:30:17.848Z,8.90
2022-11-13T05:33:04.502Z,9.37
2022-11-13T05:35:51.703Z,9.30
2022-11-13T05:38:39.006Z,9.03
2022-11-13T05:41:26.315Z,8.07
2022-11-13T05:44:13.345Z,7.87
2022-11-13T05:47:01.887Z,8.90
2022-11-13T05:49:49.057Z,7.20
2022-11-13T05:52:35.882Z,7.43
2022-11-13T05:55:23.620Z,6.90
2022-11-13T05:58:11.971Z,7.60
2022-11-13T06:01:08.127Z,7.40
2022-11-13T06:03:57.326Z,7.60
2022-11-13T06:06:44.549Z,7.13
2022-11-13T06:09:31.531Z,6.83
2022-11-13T06:12:18.640Z,7.00
2022-11-13T06:15:06.183Z,6.97
2022-11-13T06:17:52.982Z,7.30
2022-11-13T06:20:41.642Z,7.43
2022-11-13T06:23:28.574Z,7.60
2022-11-13T06:26:17.310Z,7.57
2022-11-13T06:29:06.153Z,7.13
2022-11-13T06:31:53.527Z,6.80
2022-11-13T06:34:40.179Z,7.80
2022-11-13T06:37:31.480Z,7.53
2022-11-13T06:40:21.397Z,7.80
2022-11-13T06:43:08.818Z,7.80
2022-11-13T06:45:56.369Z,7.67
2022-11-13T06:48:43.648Z,7.10
2022-11-13T06:51:32.510Z,8.07
2022-11-13T06:54:21.202Z,8.27
2022-11-13T06:57:08.414Z,7.90
2022-11-13T06:59:55.405Z,8.67
2022-11-13T07:02:42.447Z,9.70
2022-11-13T07:05:29.132Z,9.10
2022-11-13T07:08:16.925Z,8.70
2022-11-13T07:11:04.975Z,8.50
2022-11-13T07:13:52.269Z,9.00
2022-11-13T07:17:07.338Z,8.27
2022-11-13T07:19:47.602Z,9.73
2022-11-13T07:22:34.876Z,10.13
2022-11-13T07:25:21.522Z,10.00
2022-11-13T07:28:09.785Z,10.23
2022-11-13T07:30:58.669Z,10.60
2022-11-13T07:33:45.707Z,9.23
2022-11-13T07:36:32.295Z,9.80
2022-11-13T07:39:19.251Z,10.70
2022-11-13T07:42:06.643Z,10.93
2022-11-13T07:44:55.555Z,13.50
2022-11-13T07:47:43.941Z,13.33
2022-11-13T07:50:32.318Z,14.20
2022-11-13T07:53:20.162Z,14.80
2022-11-13T07:56:07.868Z,14.80
2022-11-13T07:58:54.811Z,14.97
2022-11-13T08:01:43.052Z,12.70
2022-11-13T08:04:31.593Z,13.40
2022-11-13T08:07:18.186Z,12.93
2022-11-13T08:10:06.080Z,13.97
2022-11-13T08:12:59.975Z,14.23
2022-11-13T08:15:47.140Z,12.10
2022-11-13T08:18:36.135Z,11.50
2022-11-13T08:21:23.304Z,11.70
2022-11-13T08:24:11.091Z,11.90
2022-11-13T08:26:58.578Z,10.90
2022-11-13T08:29:45.352Z,13.30
2022-11-13T08:32:32.117Z,12.27
2022-11-13T08:35:25.188Z,16.53
2022-11-13T08:38:15.671Z,13.40
2022-11-13T08:41:09.229Z,11.57
2022-11-13T08:43:56.717Z,11.93
2022-11-13T08:46:43.719Z,12.50
2022-11-13T08:49:30.434Z,13.83
2022-11-13T08:52:18.679Z,13.67
2022-11-13T08:55:06.095Z,14.80
2022-11-13T08:57:53.569Z,15.10
2022-11-13T09:00:40.689Z,15.40
2022-11-13T09:03:27.816Z,12.97
2022-11-13T09:06:15.226Z,12.53
2022-11-13T09:09:03.287Z,13.00
2022-11-13T09:11:50.454Z,14.30
2022-11-13T09:14:38.054Z,14.43
2022-11-13T09:17:24.907Z,15.80
2022-11-13T09:20:14.041Z,14.80
2022-11-13T09:23:03.005Z,15.20
2022-11-13T09:25:51.449Z,14.80
2022-11-13T09:28:38.138Z,14.00
2022-11-13T09:31:25.390Z,12.60
2022-11-13T09:34:12.339Z,12.70
2022-11-13T09:36:59.326Z,13.43
2022-11-13T09:39:46.086Z,14.93
2022-11-13T09:42:36.080Z,15.47
2022-11-13T09:45:23.456Z,16.87
2022-11-13T09:48:21.711Z,17.00
2022-11-13T09:51:14.265Z,17.80
2022-11-13T09:54:05.606Z,17.10
2022-11-13T09:56:58.768Z,17.60
2022-11-13T09:59:50.858Z,17.23
2022-11-13T10:02:50.377Z,16.60
2022-11-13T10:05:46.335Z,15.77
2022-11-13T10:08:45.988Z,16.10
2022-11-13T10:11:38.670Z,15.20
2022-11-13T10:14:30.291Z,15.73
2022-11-13T10:17:23.826Z,13.93
2022-11-13T10:20:17.163Z,13.33
2022-11-13T10:23:10.242Z,14.07
2022-11-13T10:25:58.409Z,15.23
2022-11-13T10:28:52.922Z,12.93
2022-11-13T10:31:44.623Z,15.90
2022-11-13T10:34:34.334Z,14.83
2022-11-13T10:37:30.813Z,14.20
2022-11-13T10:40:26.330Z,16.17
2022-11-13T10:43:16.600Z,16.67
2022-11-13T10:46:05.382Z,17.60
2022-11-13T10:48:52.403Z,16.50
2022-11-13T10:51:41.027Z,16.30
2022-11-13T10:54:30.481Z,15.70
2022-11-13T10:57:30.415Z,16.50
2022-11-13T11:00:23.573Z,15.10
2022-11-13T11:03:14.892Z,14.70
2022-11-13T11:06:04.580Z,15.90
2022-11-13T11:08:53.235Z,15.07
2022-11-13T11:11:57.128Z,15.73
2022-11-13T11:14:49.320Z,14.10
2022-11-13T11:17:43.789Z,14.80
2022-11-13T11:20:42.351Z,15.70
2022-11-13T11:23:38.052Z,17.23
2022-11-13T11:26:32.507Z,16.80
2022-11-13T11:29:23.350Z,15.80
2022-11-13T11:32:15.355Z,17.90
2022-11-13T11:35:12.115Z,16.73
2022-11-13T11:38:04.343Z,17.00
2022-11-13T11:40:54.711Z,16.13
2022-11-13T11:43:46.839Z,16.10
2022-11-13T11:46:34.449Z,16.30
2022-11-13T11:49:27.084Z,14.43
2022-11-13T11:52:40.075Z,15.23
2022-11-13T11:55:59.872Z,14.87
2022-11-13T11:59:04.445Z,16.10
2022-11-13T12:02:18.635Z,15.53
2022-11-13T12:05:20.345Z,15.97
2022-11-13T12:08:21.034Z,15.37
2022-11-13T12:11:16.916Z,15.67
2022-11-13T12:14:13.502Z,16.07
2022-11-13T12:17:16.944Z,15.50
2022-11-13T12:20:17.631Z,16.17
2022-11-13T12:23:15.619Z,15.57
2022-11-13T12:26:07.942Z,13.47
2022-11-13T12:29:02.801Z,14.80
2022-11-13T12:32:07.707Z,13.30
2022-11-13T12:34:59.636Z,15.40
2022-11-13T12:37:54.971Z,14.40
2022-11-13T12:40:47.756Z,14.37
2022-11-13T12:44:05.677Z,13.03
2022-11-13T12:46:55.569Z,13.03
2022-11-13T12:49:42.650Z,13.70
2022-11-13T12:52:30.024Z,12.90
2022-11-13T12:55:27.419Z,15.10
2022-11-13T12:58:22.325Z,14.47
2022-11-13T13:01:19.676Z,14.40
2022-11-13T13:04:31.442Z,12.10
2022-11-13T13:07:34.801Z,13.10
2022-11-13T13:10:28.517Z,12.70
2022-11-13T13:13:24.598Z,12.53
2022-11-13T13:16:12.468Z,13.30
2022-11-13T13:19:08.904Z,12.90
2022-11-13T13:21:57.291Z,13.73
2022-11-13T13:24:44.045Z,12.80
2022-11-13T13:27:37.457Z,15.33
2022-11-13T13:30:26.408Z,13.03
2022-11-13T13:33:21.992Z,13.40
2022-11-13T13:36:22.968Z,12.90
2022-11-13T13:39:23.939Z,13.30
2022-11-13T13:42:30.390Z,14.50
2022-11-13T13:45:27.572Z,15.13
2022-11-13T13:48:18.026Z,15.07
2022-11-13T13:51:05.727Z,14.73
2022-11-13T13:53:52.759Z,15.37
2022-11-13T13:56:43.936Z,15.17
2022-11-13T13:59:34.182Z,14.43
2022-11-13T14:02:23.813Z,13.57
2022-11-13T14:05:26.568Z,14.17
2022-11-13T14:08:18.267Z,16.17
2022-11-13T14:11:16.948Z,16.63
2022-11-13T14:14:17.298Z,16.73
2022-11-13T14:17:04.040Z,17.67
2022-11-13T14:19:51.616Z,16.60
2022-11-13T14:22:39.421Z,17.27
2022-11-13T14:25:28.758Z,15.20
2022-11-13T14:28:17.240Z,16.40
2022-11-13T14:31:09.231Z,16.87
2022-11-13T14:33:56.642Z,16.77
2022-11-13T14:36:44.247Z,20.17
2022-11-13T14:39:34.753Z,18.33
2022-11-13T14:42:23.738Z,17.33
2022-11-13T14:45:18.674Z,18.17
2022-11-13T14:48:20.208Z,16.83
2022-11-13T14:51:22.702Z,17.17
2022-11-13T14:54:47.021Z,18.20
2022-11-13T14:57:36.785Z,17.03
2022-11-13T15:00:30.658Z,19.50
2022-11-13T15:03:19.012Z,17.53
2022-11-13T15:06:07.140Z,19.50
2022-11-13T15:08:58.114Z,18.43
2022-11-13T15:11:45.249Z,17.70
2022-11-13T15:14:31.827Z,16.90
2022-11-13T15:17:20.918Z,17.33
2022-11-13T15:20:16.285Z,17.47
2022-11-13T15:23:03.028Z,19.07
2022-11-13T15:25:50.226Z,17.60
2022-11-13T15:28:37.243Z,19.93
2022-11-13T15:31:27.635Z,18.53
2022-11-13T15:34:16.679Z,18.93
2022-11-13T15:37:12.064Z,17.97
2022-11-13T15:39:59.085Z,17.83
2022-11-13T15:42:46.014Z,17.27
2022-11-13T15:45:33.417Z,17.47
2022-11-13T15:48:20.046Z,18.80
2022-11-13T15:51:07.685Z,19.67
2022-11-13T15:54:00.210Z,18.87
2022-11-13T15:56:48.532Z,18.53
2022-11-13T15:59:35.406Z,19.07
2022-11-13T16:02:22.947Z,17.30
2022-11-13T16:05:10.430Z,18.37
2022-11-13T16:07:57.639Z,19.27
2022-11-13T16:10:45.742Z,18.67
2022-11-13T16:13:32.652Z,19.07
2022-11-13T16:16:24.063Z,22.77
2022-11-13T16:19:14.766Z,21.17
2022-11-13T16:22:01.921Z,20.17
2022-11-13T16:24:48.873Z,19.53
2022-11-13T16:27:37.269Z,19.13
2022-11-13T16:30:25.400Z,18.23
2022-11-13T16:33:12.612Z,19.10
2022-11-13T16:35:59.614Z,18.63
2022-11-13T16:38:46.913Z,20.33
2022-11-13T16:41:34.082Z,19.60
2022-11-13T16:44:22.070Z,20.60
2022-11-13T16:47:21.787Z,21.07
2022-11-13T16:50:14.618Z,19.80
2022-11-13T16:53:01.863Z,16.87
2022-11-13T16:55:48.494Z,16.60
2022-11-13T16:58:35.969Z,13.87
2022-11-13T17:01:24.570Z,13.67
2022-11-13T17:04:14.095Z,14.17
2022-11-13T17:07:00.904Z,13.93
2022-11-13T17:09:55.128Z,14.50
2022-11-13T17:12:53.178Z,13.70
2022-11-13T17:15:39.982Z,12.60
2022-11-13T17:18:28.483Z,12.43
2022-11-13T17:21:15.913Z,12.70
2022-11-13T17:24:04.718Z,12.27
2022-11-13T17:26:52.492Z,12.10
2022-11-13T17:29:39.762Z,13.03
2022-11-13T17:32:26.814Z,12.67
2022-11-13T17:35:15.195Z,14.20
2022-11-13T17:38:02.186Z,13.80
2022-11-13T17:40:49.354Z,13.07
2022-11-13T17:43:37.403Z,14.27
2022-11-13T17:46:24.016Z,13.07
2022-11-13T17:49:10.970Z,11.93
2022-11-13T17:51:59.344Z,12.47
2022-11-13T17:54:46.048Z,13.10
2022-11-13T17:57:33.309Z,16.23
2022-11-13T18:00:20.612Z,16.10
2022-11-13T18:03:07.265Z,20.27
2022-11-13T18:05:54.190Z,16.93
2022-11-13T18:08:43.607Z,14.67
2022-11-13T18:11:31.043Z,13.93
2022-11-13T18:14:19.066Z,12.90
2022-11-13T18:17:05.884Z,13.00
2022-11-13T18:19:57.253Z,11.30
2022-11-13T18:22:48.155Z,13.10
2022-11-13T18:25:39.732Z,10.30
2022-11-13T18:28:30.347Z,12.33
2022-11-13T18:31:19.270Z,10.40
2022-11-13T18:34:07.821Z,12.47
2022-11-13T18:36:54.726Z,12.20
2022-11-13T18:39:41.388Z,13.03
2022-11-13T18:42:30.182Z,11.90
2022-11-13T18:45:17.302Z,14.20
2022-11-13T18:48:04.128Z,13.83
2022-11-13T18:50:57.055Z,14.67
2022-11-13T18:53:45.715Z,15.20
2022-11-13T18:56:33.422Z,15.93
2022-11-13T18:59:21.954Z,14.20
2022-11-13T19:02:11.174Z,16.40
2022-11-13T19:04:58.040Z,15.67
2022-11-13T19:07:45.387Z,16.53
2022-11-13T19:10:34.457Z,16.67
2022-11-13T19:13:21.168Z,16.97
2022-11-13T19:16:11.723Z,14.87
2022-11-13T19:18:59.949Z,16.83
2022-11-13T19:21:47.564Z,16.90
2022-11-13T19:24:35.298Z,15.10
2022-11-13T19:27:21.932Z,16.80
2022-11-13T19:30:09.578Z,18.10
2022-11-13T19:32:58.007Z,18.53
2022-11-13T19:35:45.389Z,18.37
2022-11-13T19:38:32.235Z,19.27
2022-11-13T19:41:19.223Z,17.07
2022-11-13T19:44:06.843Z,14.83
2022-11-13T19:46:53.755Z,13.47
2022-11-13T19:49:42.322Z,12.87
2022-11-13T19:52:29.391Z,13.53
2022-11-13T19:55:16.867Z,12.27
2022-11-13T19:58:03.898Z,12.47
2022-11-13T20:00:51.075Z,12.67
2022-11-13T20:03:37.759Z,10.90
2022-11-13T20:06:27.975Z,11.10
2022-11-13T20:09:14.910Z,11.87
2022-11-13T20:12:02.107Z,11.37
2022-11-13T20:14:48.655Z,12.07
2022-11-13T20:17:35.788Z,10.50
2022-11-13T20:20:22.751Z,10.63
2022-11-13T20:23:11.135Z,12.43
2022-11-13T20:25:59.729Z,9.90
2022-11-13T20:28:46.894Z,10.90
2022-11-13T20:31:33.819Z,9.60
2022-11-13T20:34:20.418Z,10.33
2022-11-13T20:37:07.375Z,9.40
2022-11-13T20:39:57.116Z,10.20
2022-11-13T20:42:43.846Z,9.30
2022-11-13T20:45:30.686Z,9.47
2022-11-13T20:48:17.694Z,9.67
2022-11-13T20:51:09.428Z,10.00
2022-11-13T20:53:56.582Z,9.70
2022-11-13T20:56:44.943Z,9.73
2022-11-13T20:59:32.015Z,10.90
2022-11-13T21:02:18.813Z,9.20
2022-11-13T21:05:06.149Z,9.40
2022-11-13T21:07:53.753Z,9.50
2022-11-13T21:10:40.755Z,8.60
2022-11-13T21:13:29.215Z,9.47
2022-11-13T21:16:17.826Z,8.07
2022-11-13T21:19:05.014Z,8.17
2022-11-13T21:21:52.266Z,8.13
2022-11-13T21:24:39.438Z,8.93
2022-11-13T21:27:26.407Z,10.27
2022-11-13T21:30:15.779Z,12.33
2022-11-13T21:33:03.447Z,11.90
2022-11-13T21:35:50.425Z,10.07
2022-11-13T21:38:37.149Z,12.70
2022-11-13T21:41:29.178Z,10.90
2022-11-13T21:44:16.099Z,13.63
2022-11-13T21:47:04.382Z,10.20
2022-11-13T21:49:52.342Z,9.63
2022-11-13T21:52:39.320Z,8.80
2022-11-13T21:55:25.962Z,8.43
2022-11-13T21:58:13.849Z,8.63
2022-11-13T22:01:01.437Z,8.33
2022-11-13T22:03:49.554Z,8.30
2022-11-13T22:06:37.524Z,8.70
2022-11-13T22:09:26.425Z,9.10
2022-11-13T22:12:13.602Z,8.20
2022-11-13T22:15:00.367Z,7.80
2022-11-13T22:17:46.990Z,7.73
2022-11-13T22:20:35.616Z,7.33
2022-11-13T22:23:23.248Z,7.47
2022-11-13T22:26:11.914Z,7.87
2022-11-13T22:29:01.219Z,7.70
2022-11-13T22:31:48.231Z,8.33
2022-11-13T22:34:35.310Z,7.83
2022-11-13T22:37:23.746Z,7.97
2022-11-13T22:40:11.449Z,7.57
2022-11-13T22:42:58.057Z,7.40
2022-11-13T22:45:44.699Z,8.70
2022-11-13T22:48:31.229Z,7.07
2022-11-13T22:51:19.900Z,7.37
2022-11-13T22:54:10.160Z,7.83
2022-11-13T22:56:59.263Z,7.60
2022-11-13T22:59:46.088Z,7.20
2022-11-13T23:02:33.041Z,6.60
2022-11-13T23:05:20.146Z,7.30
2022-11-13T23:08:07.332Z,7.50
2022-11-13T23:10:56.654Z,7.50
2022-11-13T23:13:44.560Z,7.00
2022-11-13T23:16:34.098Z,7.57
2022-11-13T23:19:21.275Z,7.53
2022-11-13T23:22:08.150Z,7.50
2022-11-13T23:24:54.723Z,8.03
2022-11-13T23:27:45.267Z,8.63
2022-11-13T23:30:32.310Z,8.03
2022-11-13T23:33:18.851Z,7.93
2022-11-13T23:36:06.598Z,9.10
2022-11-13T23:38:53.458Z,8.23
2022-11-13T23:41:40.547Z,8.00
2022-11-13T23:44:28.880Z,8.47
2022-11-13T23:47:15.781Z,8.40
2022-11-13T23:50:02.550Z,8.23
2022-11-13T23:52:49.163Z,8.30
2022-11-13T23:55:35.862Z,8.17
2022-11-13T23:58:22.698Z,8.20
